sensor_id;sensor_type;location;lat;lon;timestamp;P1;durP1;ratioP1;P2;durP2;ratioP2
48665;SDS011;34452;50.796;4.994;2023-06-24T00:02:21;11.20;;;6.43;;
48665;SDS011;34452;50.796;4.994;2023-06-24T00:04:49;13.57;;;7.05;;
48665;SDS011;34452;50.796;4.994;2023-06-24T00:07:16;12.85;;;6.25;;
48665;SDS011;34452;50.796;4.994;2023-06-24T00:09:41;15.00;;;6.45;;
48665;SDS011;34452;50.796;4.994;2023-06-24T00:12:07;12.65;;;7.25;;
48665;SDS011;34452;50.796;4.994;2023-06-24T00:14:33;11.00;;;6.75;;
48665;SDS011;34452;50.796;4.994;2023-06-24T00:16:58;9.85;;;6.18;;
48665;SDS011;34452;50.796;4.994;2023-06-24T00:19:25;11.43;;;7.10;;
48665;SDS011;34452;50.796;4.994;2023-06-24T00:21:52;10.13;;;6.07;;
48665;SDS011;34452;50.796;4.994;2023-06-24T00:24:19;13.95;;;6.93;;
48665;SDS011;34452;50.796;4.994;2023-06-24T00:26:46;12.77;;;7.05;;
48665;SDS011;34452;50.796;4.994;2023-06-24T00:29:12;13.05;;;6.97;;
48665;SDS011;34452;50.796;4.994;2023-06-24T00:31:38;15.60;;;7.32;;
48665;SDS011;34452;50.796;4.994;2023-06-24T00:34:04;13.23;;;7.20;;
48665;SDS011;34452;50.796;4.994;2023-06-24T00:36:30;9.60;;;6.70;;
48665;SDS011;34452;50.796;4.994;2023-06-24T00:38:57;14.50;;;6.65;;
48665;SDS011;34452;50.796;4.994;2023-06-24T00:41:28;11.75;;;6.43;;
48665;SDS011;34452;50.796;4.994;2023-06-24T00:43:56;10.98;;;7.15;;
48665;SDS011;34452;50.796;4.994;2023-06-24T00:46:23;20.45;;;6.97;;
48665;SDS011;34452;50.796;4.994;2023-06-24T00:48:51;13.85;;;6.85;;
48665;SDS011;34452;50.796;4.994;2023-06-24T00:51:17;14.20;;;8.05;;
48665;SDS011;34452;50.796;4.994;2023-06-24T00:53:46;15.80;;;6.82;;
48665;SDS011;34452;50.796;4.994;2023-06-24T00:56:13;14.88;;;6.55;;
48665;SDS011;34452;50.796;4.994;2023-06-24T00:58:41;11.77;;;7.05;;
48665;SDS011;34452;50.796;4.994;2023-06-24T01:01:09;14.55;;;7.28;;
48665;SDS011;34452;50.796;4.994;2023-06-24T01:03:36;13.40;;;7.63;;
48665;SDS011;34452;50.796;4.994;2023-06-24T01:06:02;23.13;;;7.95;;
48665;SDS011;34452;50.796;4.994;2023-06-24T01:10:53;12.48;;;6.75;;
48665;SDS011;34452;50.796;4.994;2023-06-24T01:13:19;14.02;;;7.45;;
48665;SDS011;34452;50.796;4.994;2023-06-24T01:15:45;17.88;;;6.93;;
48665;SDS011;34452;50.796;4.994;2023-06-24T01:32:23;13.90;;;6.15;;
48665;SDS011;34452;50.796;4.994;2023-06-24T01:34:56;12.55;;;6.70;;
48665;SDS011;34452;50.796;4.994;2023-06-24T01:43:03;12.57;;;5.97;;
48665;SDS011;34452;50.796;4.994;2023-06-24T01:45:32;11.10;;;6.25;;
48665;SDS011;34452;50.796;4.994;2023-06-24T01:48:06;8.30;;;6.00;;
48665;SDS011;34452;50.796;4.994;2023-06-24T01:50:35;11.98;;;5.63;;
48665;SDS011;34452;50.796;4.994;2023-06-24T01:53:04;8.77;;;5.75;;
48665;SDS011;34452;50.796;4.994;2023-06-24T01:55:32;6.97;;;5.40;;
48665;SDS011;34452;50.796;4.994;2023-06-24T01:57:59;11.25;;;5.80;;
48665;SDS011;34452;50.796;4.994;2023-06-24T02:00:28;15.25;;;6.07;;
48665;SDS011;34452;50.796;4.994;2023-06-24T02:05:20;15.07;;;5.95;;
48665;SDS011;34452;50.796;4.994;2023-06-24T02:07:48;16.80;;;5.93;;
48665;SDS011;34452;50.796;4.994;2023-06-24T02:10:17;8.75;;;5.20;;
48665;SDS011;34452;50.796;4.994;2023-06-24T02:12:44;11.85;;;5.63;;
48665;SDS011;34452;50.796;4.994;2023-06-24T02:15:12;12.05;;;5.00;;
48665;SDS011;34452;50.796;4.994;2023-06-24T02:17:39;11.98;;;5.10;;
48665;SDS011;34452;50.796;4.994;2023-06-24T02:20:06;10.00;;;5.80;;
48665;SDS011;34452;50.796;4.994;2023-06-24T02:22:35;10.93;;;5.65;;
48665;SDS011;34452;50.796;4.994;2023-06-24T02:25:04;8.90;;;4.93;;
48665;SDS011;34452;50.796;4.994;2023-06-24T02:27:30;7.20;;;5.05;;
48665;SDS011;34452;50.796;4.994;2023-06-24T02:29:57;12.88;;;5.63;;
48665;SDS011;34452;50.796;4.994;2023-06-24T02:32:25;16.45;;;5.97;;
48665;SDS011;34452;50.796;4.994;2023-06-24T02:34:50;11.10;;;5.60;;
48665;SDS011;34452;50.796;4.994;2023-06-24T02:37:16;11.90;;;5.05;;
48665;SDS011;34452;50.796;4.994;2023-06-24T02:39:42;15.57;;;5.07;;
48665;SDS011;34452;50.796;4.994;2023-06-24T02:42:10;10.07;;;5.80;;
48665;SDS011;34452;50.796;4.994;2023-06-24T02:44:37;8.88;;;4.50;;
48665;SDS011;34452;50.796;4.994;2023-06-24T02:47:05;9.73;;;4.40;;
48665;SDS011;34452;50.796;4.994;2023-06-24T02:49:35;16.33;;;5.43;;
48665;SDS011;34452;50.796;4.994;2023-06-24T02:52:02;12.68;;;4.63;;
48665;SDS011;34452;50.796;4.994;2023-06-24T02:54:28;9.07;;;4.75;;
48665;SDS011;34452;50.796;4.994;2023-06-24T02:56:55;10.77;;;4.90;;
48665;SDS011;34452;50.796;4.994;2023-06-24T02:59:23;13.80;;;4.75;;
48665;SDS011;34452;50.796;4.994;2023-06-24T03:04:15;10.00;;;4.20;;
48665;SDS011;34452;50.796;4.994;2023-06-24T03:06:43;14.70;;;5.05;;
48665;SDS011;34452;50.796;4.994;2023-06-24T03:14:19;13.95;;;5.13;;
48665;SDS011;34452;50.796;4.994;2023-06-24T03:16:45;15.68;;;5.45;;
48665;SDS011;34452;50.796;4.994;2023-06-24T03:19:11;15.15;;;6.28;;
48665;SDS011;34452;50.796;4.994;2023-06-24T03:21:36;17.73;;;5.63;;
48665;SDS011;34452;50.796;4.994;2023-06-24T03:24:02;12.52;;;5.85;;
48665;SDS011;34452;50.796;4.994;2023-06-24T03:29:13;13.80;;;5.38;;
48665;SDS011;34452;50.796;4.994;2023-06-24T03:31:38;11.45;;;4.93;;
48665;SDS011;34452;50.796;4.994;2023-06-24T03:34:09;11.40;;;5.28;;
48665;SDS011;34452;50.796;4.994;2023-06-24T03:39:03;14.98;;;5.55;;
48665;SDS011;34452;50.796;4.994;2023-06-24T03:41:29;20.27;;;6.50;;
48665;SDS011;34452;50.796;4.994;2023-06-24T03:43:55;13.32;;;5.43;;
48665;SDS011;34452;50.796;4.994;2023-06-24T03:46:21;16.27;;;6.43;;
48665;SDS011;34452;50.796;4.994;2023-06-24T03:48:47;12.25;;;5.90;;
48665;SDS011;34452;50.796;4.994;2023-06-24T03:51:14;11.85;;;6.05;;
48665;SDS011;34452;50.796;4.994;2023-06-24T03:53:40;8.05;;;5.13;;
48665;SDS011;34452;50.796;4.994;2023-06-24T03:56:06;13.02;;;5.68;;
48665;SDS011;34452;50.796;4.994;2023-06-24T03:58:31;17.48;;;6.30;;
48665;SDS011;34452;50.796;4.994;2023-06-24T04:00:59;14.85;;;5.78;;
48665;SDS011;34452;50.796;4.994;2023-06-24T04:03:25;13.25;;;6.63;;
48665;SDS011;34452;50.796;4.994;2023-06-24T04:05:53;14.55;;;5.95;;
48665;SDS011;34452;50.796;4.994;2023-06-24T04:08:19;12.35;;;6.05;;
48665;SDS011;34452;50.796;4.994;2023-06-24T04:10:46;15.38;;;6.50;;
48665;SDS011;34452;50.796;4.994;2023-06-24T04:13:11;10.60;;;5.90;;
48665;SDS011;34452;50.796;4.994;2023-06-24T04:15:37;12.00;;;5.65;;
48665;SDS011;34452;50.796;4.994;2023-06-24T04:18:03;12.77;;;6.50;;
48665;SDS011;34452;50.796;4.994;2023-06-24T04:20:29;22.95;;;6.25;;
48665;SDS011;34452;50.796;4.994;2023-06-24T04:22:54;15.57;;;5.72;;
48665;SDS011;34452;50.796;4.994;2023-06-24T04:25:20;16.08;;;6.50;;
48665;SDS011;34452;50.796;4.994;2023-06-24T04:27:46;10.63;;;5.50;;
48665;SDS011;34452;50.796;4.994;2023-06-24T04:30:11;12.95;;;5.90;;
48665;SDS011;34452;50.796;4.994;2023-06-24T04:32:37;11.50;;;6.32;;
48665;SDS011;34452;50.796;4.994;2023-06-24T04:35:03;12.60;;;5.95;;
48665;SDS011;34452;50.796;4.994;2023-06-24T04:37:29;13.23;;;6.05;;
48665;SDS011;34452;50.796;4.994;2023-06-24T04:39:55;17.23;;;6.90;;
48665;SDS011;34452;50.796;4.994;2023-06-24T04:42:21;9.75;;;6.55;;
48665;SDS011;34452;50.796;4.994;2023-06-24T04:44:48;16.65;;;6.30;;
48665;SDS011;34452;50.796;4.994;2023-06-24T04:47:16;18.55;;;6.65;;
48665;SDS011;34452;50.796;4.994;2023-06-24T04:49:42;15.85;;;6.13;;
48665;SDS011;34452;50.796;4.994;2023-06-24T04:52:09;15.73;;;6.45;;
48665;SDS011;34452;50.796;4.994;2023-06-24T04:54:36;18.88;;;6.72;;
48665;SDS011;34452;50.796;4.994;2023-06-24T04:57:02;12.63;;;6.43;;
48665;SDS011;34452;50.796;4.994;2023-06-24T04:59:28;15.45;;;6.13;;
48665;SDS011;34452;50.796;4.994;2023-06-24T05:01:53;13.80;;;6.35;;
48665;SDS011;34452;50.796;4.994;2023-06-24T05:04:19;16.20;;;6.55;;
48665;SDS011;34452;50.796;4.994;2023-06-24T05:06:45;13.45;;;6.32;;
48665;SDS011;34452;50.796;4.994;2023-06-24T05:09:11;16.10;;;7.00;;
48665;SDS011;34452;50.796;4.994;2023-06-24T05:11:39;14.15;;;6.13;;
48665;SDS011;34452;50.796;4.994;2023-06-24T05:14:05;11.75;;;6.10;;
48665;SDS011;34452;50.796;4.994;2023-06-24T05:16:31;16.48;;;6.50;;
48665;SDS011;34452;50.796;4.994;2023-06-24T05:18:57;11.20;;;6.25;;
48665;SDS011;34452;50.796;4.994;2023-06-24T05:21:23;12.95;;;5.85;;
48665;SDS011;34452;50.796;4.994;2023-06-24T05:23:48;18.45;;;5.57;;
48665;SDS011;34452;50.796;4.994;2023-06-24T05:26:14;13.55;;;6.95;;
48665;SDS011;34452;50.796;4.994;2023-06-24T05:28:40;9.93;;;5.63;;
48665;SDS011;34452;50.796;4.994;2023-06-24T05:31:05;16.77;;;6.28;;
48665;SDS011;34452;50.796;4.994;2023-06-24T05:33:31;14.88;;;5.95;;
48665;SDS011;34452;50.796;4.994;2023-06-24T05:35:57;17.23;;;6.55;;
48665;SDS011;34452;50.796;4.994;2023-06-24T05:38:23;12.20;;;5.68;;
48665;SDS011;34452;50.796;4.994;2023-06-24T05:40:48;13.65;;;6.40;;
48665;SDS011;34452;50.796;4.994;2023-06-24T05:43:14;13.02;;;6.95;;
48665;SDS011;34452;50.796;4.994;2023-06-24T05:45:40;14.93;;;6.68;;
48665;SDS011;34452;50.796;4.994;2023-06-24T05:48:07;9.65;;;5.95;;
48665;SDS011;34452;50.796;4.994;2023-06-24T05:50:32;14.75;;;6.30;;
48665;SDS011;34452;50.796;4.994;2023-06-24T05:52:58;11.00;;;5.95;;
48665;SDS011;34452;50.796;4.994;2023-06-24T05:55:24;8.30;;;5.88;;
48665;SDS011;34452;50.796;4.994;2023-06-24T05:57:49;17.83;;;7.10;;
48665;SDS011;34452;50.796;4.994;2023-06-24T06:00:17;11.30;;;6.38;;
48665;SDS011;34452;50.796;4.994;2023-06-24T06:02:43;14.30;;;5.80;;
48665;SDS011;34452;50.796;4.994;2023-06-24T06:05:09;10.48;;;6.05;;
48665;SDS011;34452;50.796;4.994;2023-06-24T06:07:34;18.13;;;5.63;;
48665;SDS011;34452;50.796;4.994;2023-06-24T06:10:02;14.98;;;5.68;;
48665;SDS011;34452;50.796;4.994;2023-06-24T06:12:29;8.68;;;5.13;;
48665;SDS011;34452;50.796;4.994;2023-06-24T06:14:54;16.10;;;6.35;;
48665;SDS011;34452;50.796;4.994;2023-06-24T06:17:20;9.90;;;5.00;;
48665;SDS011;34452;50.796;4.994;2023-06-24T06:19:46;7.95;;;4.75;;
48665;SDS011;34452;50.796;4.994;2023-06-24T06:22:12;7.43;;;5.10;;
48665;SDS011;34452;50.796;4.994;2023-06-24T06:24:38;11.30;;;5.05;;
48665;SDS011;34452;50.796;4.994;2023-06-24T06:27:04;7.60;;;5.15;;
48665;SDS011;34452;50.796;4.994;2023-06-24T06:29:34;7.60;;;4.85;;
48665;SDS011;34452;50.796;4.994;2023-06-24T06:32:00;10.88;;;4.63;;
48665;SDS011;34452;50.796;4.994;2023-06-24T06:34:25;5.25;;;4.15;;
48665;SDS011;34452;50.796;4.994;2023-06-24T06:36:51;8.00;;;4.35;;
48665;SDS011;34452;50.796;4.994;2023-06-24T06:39:17;6.82;;;4.00;;
48665;SDS011;34452;50.796;4.994;2023-06-24T06:41:43;8.05;;;4.05;;
48665;SDS011;34452;50.796;4.994;2023-06-24T06:44:08;6.15;;;3.78;;
48665;SDS011;34452;50.796;4.994;2023-06-24T06:46:34;8.75;;;4.15;;
48665;SDS011;34452;50.796;4.994;2023-06-24T06:49:00;6.85;;;4.03;;
48665;SDS011;34452;50.796;4.994;2023-06-24T06:51:26;7.95;;;4.63;;
48665;SDS011;34452;50.796;4.994;2023-06-24T06:53:51;9.43;;;4.60;;
48665;SDS011;34452;50.796;4.994;2023-06-24T06:56:19;6.82;;;3.65;;
48665;SDS011;34452;50.796;4.994;2023-06-24T06:59:04;6.75;;;4.05;;
48665;SDS011;34452;50.796;4.994;2023-06-24T07:01:30;7.07;;;4.18;;
48665;SDS011;34452;50.796;4.994;2023-06-24T07:03:56;8.52;;;4.35;;
48665;SDS011;34452;50.796;4.994;2023-06-24T07:06:22;9.07;;;4.00;;
48665;SDS011;34452;50.796;4.994;2023-06-24T07:08:47;8.88;;;4.45;;
48665;SDS011;34452;50.796;4.994;2023-06-24T07:11:13;15.93;;;3.42;;
48665;SDS011;34452;50.796;4.994;2023-06-24T07:13:39;6.45;;;3.80;;
48665;SDS011;34452;50.796;4.994;2023-06-24T07:16:05;7.20;;;4.20;;
48665;SDS011;34452;50.796;4.994;2023-06-24T07:18:30;16.40;;;4.13;;
48665;SDS011;34452;50.796;4.994;2023-06-24T07:20:56;6.53;;;3.60;;
48665;SDS011;34452;50.796;4.994;2023-06-24T07:23:22;2.60;;;2.28;;
48665;SDS011;34452;50.796;4.994;2023-06-24T07:25:48;4.28;;;3.15;;
48665;SDS011;34452;50.796;4.994;2023-06-24T07:28:13;5.78;;;2.97;;
48665;SDS011;34452;50.796;4.994;2023-06-24T07:30:40;7.47;;;3.33;;
48665;SDS011;34452;50.796;4.994;2023-06-24T07:35:32;5.18;;;3.05;;
48665;SDS011;34452;50.796;4.994;2023-06-24T07:37:58;5.57;;;2.90;;
48665;SDS011;34452;50.796;4.994;2023-06-24T07:40:24;5.88;;;3.67;;
48665;SDS011;34452;50.796;4.994;2023-06-24T07:42:50;4.10;;;2.80;;
48665;SDS011;34452;50.796;4.994;2023-06-24T07:45:16;5.13;;;3.20;;
48665;SDS011;34452;50.796;4.994;2023-06-24T07:47:42;7.13;;;3.38;;
48665;SDS011;34452;50.796;4.994;2023-06-24T07:50:07;5.43;;;3.30;;
48665;SDS011;34452;50.796;4.994;2023-06-24T07:52:36;5.15;;;3.35;;
48665;SDS011;34452;50.796;4.994;2023-06-24T07:55:02;5.90;;;2.90;;
48665;SDS011;34452;50.796;4.994;2023-06-24T07:57:29;6.15;;;3.33;;
48665;SDS011;34452;50.796;4.994;2023-06-24T08:02:21;5.00;;;3.00;;
48665;SDS011;34452;50.796;4.994;2023-06-24T08:04:46;5.28;;;2.40;;
48665;SDS011;34452;50.796;4.994;2023-06-24T08:07:12;3.03;;;2.38;;
48665;SDS011;34452;50.796;4.994;2023-06-24T08:09:38;4.47;;;2.47;;
48665;SDS011;34452;50.796;4.994;2023-06-24T08:12:04;3.92;;;2.25;;
48665;SDS011;34452;50.796;4.994;2023-06-24T08:14:30;5.55;;;2.00;;
48665;SDS011;34452;50.796;4.994;2023-06-24T08:16:55;7.15;;;1.77;;
48665;SDS011;34452;50.796;4.994;2023-06-24T08:19:21;4.57;;;2.05;;
48665;SDS011;34452;50.796;4.994;2023-06-24T08:21:47;5.05;;;2.67;;
48665;SDS011;34452;50.796;4.994;2023-06-24T08:24:12;4.95;;;2.70;;
48665;SDS011;34452;50.796;4.994;2023-06-24T08:26:38;6.72;;;1.77;;
48665;SDS011;34452;50.796;4.994;2023-06-24T08:29:04;2.65;;;1.67;;
48665;SDS011;34452;50.796;4.994;2023-06-24T08:31:29;6.38;;;1.88;;
48665;SDS011;34452;50.796;4.994;2023-06-24T08:33:58;6.50;;;1.80;;
48665;SDS011;34452;50.796;4.994;2023-06-24T08:36:25;2.67;;;1.67;;
48665;SDS011;34452;50.796;4.994;2023-06-24T08:38:52;2.05;;;1.30;;
48665;SDS011;34452;50.796;4.994;2023-06-24T08:41:17;3.45;;;1.65;;
48665;SDS011;34452;50.796;4.994;2023-06-24T08:43:43;4.80;;;1.55;;
48665;SDS011;34452;50.796;4.994;2023-06-24T08:46:09;4.65;;;2.00;;
48665;SDS011;34452;50.796;4.994;2023-06-24T08:48:37;4.00;;;1.85;;
48665;SDS011;34452;50.796;4.994;2023-06-24T08:51:07;6.68;;;1.73;;
48665;SDS011;34452;50.796;4.994;2023-06-24T08:53:34;3.67;;;1.73;;
48665;SDS011;34452;50.796;4.994;2023-06-24T08:56:01;2.83;;;1.90;;
48665;SDS011;34452;50.796;4.994;2023-06-24T08:58:27;5.10;;;1.92;;
48665;SDS011;34452;50.796;4.994;2023-06-24T09:03:19;3.65;;;1.88;;
48665;SDS011;34452;50.796;4.994;2023-06-24T09:05:44;2.65;;;1.63;;
48665;SDS011;34452;50.796;4.994;2023-06-24T09:08:10;3.13;;;1.83;;
48665;SDS011;34452;50.796;4.994;2023-06-24T09:10:36;8.20;;;2.22;;
48665;SDS011;34452;50.796;4.994;2023-06-24T09:13:03;2.60;;;1.90;;
48665;SDS011;34452;50.796;4.994;2023-06-24T09:15:30;4.38;;;2.85;;
48665;SDS011;34452;50.796;4.994;2023-06-24T09:17:58;3.60;;;2.17;;
48665;SDS011;34452;50.796;4.994;2023-06-24T09:20:25;6.50;;;2.20;;
48665;SDS011;34452;50.796;4.994;2023-06-24T09:22:57;4.07;;;2.00;;
48665;SDS011;34452;50.796;4.994;2023-06-24T09:25:23;3.38;;;2.58;;
48665;SDS011;34452;50.796;4.994;2023-06-24T09:27:49;6.05;;;2.42;;
48665;SDS011;34452;50.796;4.994;2023-06-24T09:30:18;3.38;;;2.15;;
48665;SDS011;34452;50.796;4.994;2023-06-24T09:32:45;3.00;;;2.10;;
48665;SDS011;34452;50.796;4.994;2023-06-24T09:35:12;2.30;;;2.10;;
48665;SDS011;34452;50.796;4.994;2023-06-24T09:37:39;4.82;;;2.25;;
48665;SDS011;34452;50.796;4.994;2023-06-24T09:40:05;2.17;;;1.98;;
48665;SDS011;34452;50.796;4.994;2023-06-24T09:42:33;2.53;;;2.00;;
48665;SDS011;34452;50.796;4.994;2023-06-24T09:45:03;2.70;;;1.90;;
48665;SDS011;34452;50.796;4.994;2023-06-24T09:47:30;3.97;;;2.38;;
48665;SDS011;34452;50.796;4.994;2023-06-24T09:49:56;3.83;;;2.00;;
48665;SDS011;34452;50.796;4.994;2023-06-24T09:52:22;3.88;;;2.22;;
48665;SDS011;34452;50.796;4.994;2023-06-24T09:54:50;2.80;;;1.80;;
48665;SDS011;34452;50.796;4.994;2023-06-24T09:57:18;3.83;;;2.22;;
48665;SDS011;34452;50.796;4.994;2023-06-24T09:59:51;3.17;;;2.35;;
48665;SDS011;34452;50.796;4.994;2023-06-24T10:02:17;4.57;;;2.20;;
48665;SDS011;34452;50.796;4.994;2023-06-24T10:04:43;5.00;;;2.38;;
48665;SDS011;34452;50.796;4.994;2023-06-24T10:07:11;4.05;;;2.58;;
48665;SDS011;34452;50.796;4.994;2023-06-24T10:09:39;8.00;;;2.75;;
48665;SDS011;34452;50.796;4.994;2023-06-24T10:12:05;3.85;;;2.40;;
48665;SDS011;34452;50.796;4.994;2023-06-24T10:14:31;4.22;;;2.28;;
48665;SDS011;34452;50.796;4.994;2023-06-24T10:19:42;3.22;;;2.13;;
48665;SDS011;34452;50.796;4.994;2023-06-24T10:22:09;4.65;;;2.13;;
48665;SDS011;34452;50.796;4.994;2023-06-24T10:24:37;4.32;;;1.88;;
48665;SDS011;34452;50.796;4.994;2023-06-24T10:27:07;3.20;;;2.50;;
48665;SDS011;34452;50.796;4.994;2023-06-24T10:29:34;3.63;;;1.98;;
48665;SDS011;34452;50.796;4.994;2023-06-24T10:32:03;3.83;;;2.00;;
48665;SDS011;34452;50.796;4.994;2023-06-24T10:34:31;2.78;;;1.85;;
48665;SDS011;34452;50.796;4.994;2023-06-24T10:39:52;3.15;;;2.08;;
48665;SDS011;34452;50.796;4.994;2023-06-24T10:45:19;2.88;;;1.92;;
48665;SDS011;34452;50.796;4.994;2023-06-24T10:47:49;6.35;;;2.10;;
48665;SDS011;34452;50.796;4.994;2023-06-24T10:50:18;3.50;;;2.40;;
48665;SDS011;34452;50.796;4.994;2023-06-24T10:52:45;4.35;;;2.08;;
48665;SDS011;34452;50.796;4.994;2023-06-24T10:55:13;2.38;;;1.63;;
48665;SDS011;34452;50.796;4.994;2023-06-24T10:57:41;2.50;;;1.70;;
48665;SDS011;34452;50.796;4.994;2023-06-24T11:00:07;4.43;;;1.83;;
48665;SDS011;34452;50.796;4.994;2023-06-24T11:04:59;3.50;;;1.95;;
48665;SDS011;34452;50.796;4.994;2023-06-24T11:07:27;2.25;;;1.70;;
48665;SDS011;34452;50.796;4.994;2023-06-24T11:12:40;3.35;;;1.73;;
48665;SDS011;34452;50.796;4.994;2023-06-24T11:15:08;2.35;;;1.80;;
48665;SDS011;34452;50.796;4.994;2023-06-24T11:17:35;4.63;;;1.48;;
48665;SDS011;34452;50.796;4.994;2023-06-24T11:20:02;3.38;;;1.80;;
48665;SDS011;34452;50.796;4.994;2023-06-24T11:22:32;3.45;;;1.50;;
48665;SDS011;34452;50.796;4.994;2023-06-24T11:24:58;2.72;;;1.60;;
48665;SDS011;34452;50.796;4.994;2023-06-24T11:29:51;2.20;;;1.40;;
48665;SDS011;34452;50.796;4.994;2023-06-24T11:32:18;6.75;;;1.65;;
48665;SDS011;34452;50.796;4.994;2023-06-24T11:34:44;2.60;;;1.58;;
48665;SDS011;34452;50.796;4.994;2023-06-24T11:37:11;2.95;;;1.75;;
48665;SDS011;34452;50.796;4.994;2023-06-24T11:39:39;3.25;;;1.67;;
48665;SDS011;34452;50.796;4.994;2023-06-24T11:42:05;1.63;;;1.50;;
48665;SDS011;34452;50.796;4.994;2023-06-24T11:44:33;2.08;;;1.55;;
48665;SDS011;34452;50.796;4.994;2023-06-24T11:49:55;2.28;;;1.45;;
48665;SDS011;34452;50.796;4.994;2023-06-24T11:57:54;2.00;;;1.55;;
48665;SDS011;34452;50.796;4.994;2023-06-24T12:00:23;5.65;;;2.03;;
48665;SDS011;34452;50.796;4.994;2023-06-24T12:02:53;2.22;;;1.52;;
48665;SDS011;34452;50.796;4.994;2023-06-24T12:05:21;2.05;;;1.63;;
48665;SDS011;34452;50.796;4.994;2023-06-24T12:07:51;5.43;;;1.70;;
48665;SDS011;34452;50.796;4.994;2023-06-24T12:10:34;2.78;;;1.70;;
48665;SDS011;34452;50.796;4.994;2023-06-24T12:13:01;2.63;;;1.65;;
48665;SDS011;34452;50.796;4.994;2023-06-24T12:15:28;3.45;;;1.55;;
48665;SDS011;34452;50.796;4.994;2023-06-24T12:20:20;2.92;;;1.70;;
48665;SDS011;34452;50.796;4.994;2023-06-24T12:22:47;2.78;;;1.67;;
48665;SDS011;34452;50.796;4.994;2023-06-24T12:25:14;2.67;;;1.60;;
48665;SDS011;34452;50.796;4.994;2023-06-24T12:27:41;2.53;;;1.60;;
48665;SDS011;34452;50.796;4.994;2023-06-24T12:30:08;3.72;;;1.30;;
48665;SDS011;34452;50.796;4.994;2023-06-24T12:32:35;5.40;;;1.65;;
48665;SDS011;34452;50.796;4.994;2023-06-24T12:35:01;1.95;;;1.55;;
48665;SDS011;34452;50.796;4.994;2023-06-24T12:37:30;2.53;;;1.75;;
48665;SDS011;34452;50.796;4.994;2023-06-24T12:39:57;5.50;;;2.17;;
48665;SDS011;34452;50.796;4.994;2023-06-24T12:44:48;3.38;;;1.58;;
48665;SDS011;34452;50.796;4.994;2023-06-24T12:49:39;2.22;;;1.30;;
48665;SDS011;34452;50.796;4.994;2023-06-24T12:54:31;2.15;;;1.67;;
48665;SDS011;34452;50.796;4.994;2023-06-24T12:59:22;1.85;;;1.40;;
48665;SDS011;34452;50.796;4.994;2023-06-24T13:04:13;3.53;;;1.33;;
48665;SDS011;34452;50.796;4.994;2023-06-24T13:09:05;7.25;;;1.60;;
48665;SDS011;34452;50.796;4.994;2023-06-24T13:13:56;6.50;;;1.55;;
48665;SDS011;34452;50.796;4.994;2023-06-24T13:18:47;3.30;;;1.42;;
48665;SDS011;34452;50.796;4.994;2023-06-24T13:21:14;2.22;;;1.13;;
48665;SDS011;34452;50.796;4.994;2023-06-24T13:26:06;2.92;;;1.65;;
48665;SDS011;34452;50.796;4.994;2023-06-24T13:30:58;1.60;;;1.48;;
48665;SDS011;34452;50.796;4.994;2023-06-24T13:33:24;2.60;;;1.55;;
48665;SDS011;34452;50.796;4.994;2023-06-24T13:38:16;1.60;;;1.23;;
48665;SDS011;34452;50.796;4.994;2023-06-24T13:43:08;2.35;;;1.65;;
48665;SDS011;34452;50.796;4.994;2023-06-24T13:47:59;4.70;;;1.50;;
48665;SDS011;34452;50.796;4.994;2023-06-24T13:50:25;2.72;;;1.48;;
48665;SDS011;34452;50.796;4.994;2023-06-24T13:55:16;2.90;;;1.65;;
48665;SDS011;34452;50.796;4.994;2023-06-24T13:57:42;2.95;;;1.42;;
48665;SDS011;34452;50.796;4.994;2023-06-24T14:00:07;2.58;;;1.45;;
48665;SDS011;34452;50.796;4.994;2023-06-24T14:02:34;2.05;;;1.50;;
48665;SDS011;34452;50.796;4.994;2023-06-24T14:05:00;2.75;;;1.73;;
48665;SDS011;34452;50.796;4.994;2023-06-24T14:07:26;2.40;;;1.33;;
48665;SDS011;34452;50.796;4.994;2023-06-24T14:09:51;2.38;;;1.75;;
48665;SDS011;34452;50.796;4.994;2023-06-24T14:12:17;3.78;;;1.42;;
48665;SDS011;34452;50.796;4.994;2023-06-24T14:14:43;5.18;;;1.52;;
48665;SDS011;34452;50.796;4.994;2023-06-24T14:17:09;2.35;;;1.60;;
48665;SDS011;34452;50.796;4.994;2023-06-24T14:19:36;4.53;;;1.30;;
48665;SDS011;34452;50.796;4.994;2023-06-24T14:22:03;2.30;;;1.70;;
48665;SDS011;34452;50.796;4.994;2023-06-24T14:24:29;2.70;;;1.45;;
48665;SDS011;34452;50.796;4.994;2023-06-24T14:26:55;2.95;;;1.70;;
48665;SDS011;34452;50.796;4.994;2023-06-24T14:29:21;3.78;;;1.58;;
48665;SDS011;34452;50.796;4.994;2023-06-24T14:31:46;1.85;;;1.27;;
48665;SDS011;34452;50.796;4.994;2023-06-24T14:34:12;3.22;;;1.50;;
48665;SDS011;34452;50.796;4.994;2023-06-24T14:36:38;1.67;;;1.27;;
48665;SDS011;34452;50.796;4.994;2023-06-24T14:39:04;2.17;;;1.40;;
48665;SDS011;34452;50.796;4.994;2023-06-24T14:41:29;3.38;;;1.50;;
48665;SDS011;34452;50.796;4.994;2023-06-24T14:43:55;1.77;;;1.35;;
48665;SDS011;34452;50.796;4.994;2023-06-24T14:46:21;2.13;;;1.55;;
48665;SDS011;34452;50.796;4.994;2023-06-24T14:48:47;2.22;;;1.48;;
48665;SDS011;34452;50.796;4.994;2023-06-24T14:51:12;5.18;;;1.67;;
48665;SDS011;34452;50.796;4.994;2023-06-24T14:53:38;2.70;;;1.58;;
48665;SDS011;34452;50.796;4.994;2023-06-24T14:56:05;4.80;;;1.42;;
48665;SDS011;34452;50.796;4.994;2023-06-24T14:58:31;4.30;;;1.83;;
48665;SDS011;34452;50.796;4.994;2023-06-24T15:00:56;3.15;;;1.52;;
48665;SDS011;34452;50.796;4.994;2023-06-24T15:03:22;3.47;;;1.65;;
48665;SDS011;34452;50.796;4.994;2023-06-24T15:05:48;3.33;;;1.63;;
48665;SDS011;34452;50.796;4.994;2023-06-24T15:08:14;10.93;;;1.95;;
48665;SDS011;34452;50.796;4.994;2023-06-24T15:10:39;2.88;;;1.63;;
48665;SDS011;34452;50.796;4.994;2023-06-24T15:13:05;1.67;;;1.40;;
48665;SDS011;34452;50.796;4.994;2023-06-24T15:15:31;1.92;;;1.60;;
48665;SDS011;34452;50.796;4.994;2023-06-24T15:17:57;2.63;;;1.63;;
48665;SDS011;34452;50.796;4.994;2023-06-24T15:20:22;2.10;;;1.50;;
48665;SDS011;34452;50.796;4.994;2023-06-24T15:22:48;2.22;;;1.30;;
48665;SDS011;34452;50.796;4.994;2023-06-24T15:25:14;4.50;;;1.83;;
48665;SDS011;34452;50.796;4.994;2023-06-24T15:27:40;1.42;;;1.33;;
48665;SDS011;34452;50.796;4.994;2023-06-24T15:30:06;2.22;;;1.55;;
48665;SDS011;34452;50.796;4.994;2023-06-24T15:32:32;2.45;;;1.75;;
48665;SDS011;34452;50.796;4.994;2023-06-24T15:34:57;4.45;;;1.70;;
48665;SDS011;34452;50.796;4.994;2023-06-24T15:37:26;4.57;;;1.75;;
48665;SDS011;34452;50.796;4.994;2023-06-24T15:39:54;5.85;;;1.60;;
48665;SDS011;34452;50.796;4.994;2023-06-24T15:42:19;5.05;;;1.48;;
48665;SDS011;34452;50.796;4.994;2023-06-24T15:44:46;5.65;;;1.95;;
48665;SDS011;34452;50.796;4.994;2023-06-24T15:47:11;9.13;;;1.67;;
48665;SDS011;34452;50.796;4.994;2023-06-24T15:49:37;2.28;;;1.58;;
48665;SDS011;34452;50.796;4.994;2023-06-24T15:52:03;2.30;;;1.73;;
48665;SDS011;34452;50.796;4.994;2023-06-24T15:54:29;2.40;;;1.27;;
48665;SDS011;34452;50.796;4.994;2023-06-24T15:56:54;4.45;;;1.50;;
48665;SDS011;34452;50.796;4.994;2023-06-24T15:59:20;1.88;;;1.58;;
48665;SDS011;34452;50.796;4.994;2023-06-24T16:01:46;1.67;;;1.40;;
48665;SDS011;34452;50.796;4.994;2023-06-24T16:04:11;11.57;;;1.60;;
48665;SDS011;34452;50.796;4.994;2023-06-24T16:06:37;3.83;;;1.58;;
48665;SDS011;34452;50.796;4.994;2023-06-24T16:09:03;2.53;;;1.65;;
48665;SDS011;34452;50.796;4.994;2023-06-24T16:11:29;3.17;;;1.50;;
48665;SDS011;34452;50.796;4.994;2023-06-24T16:13:54;3.00;;;1.65;;
48665;SDS011;34452;50.796;4.994;2023-06-24T16:16:20;1.33;;;1.23;;
48665;SDS011;34452;50.796;4.994;2023-06-24T16:18:46;7.68;;;1.55;;
48665;SDS011;34452;50.796;4.994;2023-06-24T16:21:12;8.50;;;1.65;;
48665;SDS011;34452;50.796;4.994;2023-06-24T16:23:37;2.28;;;1.50;;
48665;SDS011;34452;50.796;4.994;2023-06-24T16:26:03;6.75;;;1.63;;